Time;durP1;ratioP1;P1;durP2;ratioP2;P2;SDS_P1;SDS_P2;PMS_P1;PMS_P2;Temp;Humidity;BMP_temperature;BMP_pressure;BME280_temperature;BME280_humidity;BME280_pressure;Samples;Min_cycle;Max_cycle;Signal;HPM_P1;HPM_P2
2023/06/02 14:36:12;;;;;;;16.27;6.93;;;;;;;20.80;56.83;102029.94;5103607;22;20827;-77
2023/06/02 14:38:38;;;;;;;14.43;5.57;;;;;;;21.01;57.48;102038.03;5113441;27;20863;-76
2023/06/02 14:41:05;;;;;;;16.25;6.00;;;;;;;20.97;60.98;102031.16;5111187;27;20057;-78
2023/06/02 14:43:31;;;;;;;14.48;6.38;;;;;;;20.90;58.12;102030.84;5087958;27;20109;-76
2023/06/02 14:45:57;;;;;;;17.42;6.32;;;;;;;21.18;57.77;102032.81;5105888;27;20796;-77
2023/06/02 14:48:25;;;;;;;15.60;5.90;;;;;;;20.78;58.13;102031.91;5099275;27;20489;-80
2023/06/02 14:50:54;;;;;;;23.17;5.95;;;;;;;20.90;58.07;102034.41;5118938;27;20066;-78
2023/06/02 14:53:19;;;;;;;13.23;5.95;;;;;;;20.63;59.81;102034.13;5118737;27;20067;-76
2023/06/02 14:55:46;;;;;;;20.27;5.85;;;;;;;20.66;58.24;102025.72;5114701;27;20039;-77
2023/06/02 14:58:11;;;;;;;27.17;6.13;;;;;;;21.06;58.25;102028.50;5094117;27;20027;-77
2023/06/02 15:00:37;;;;;;;16.73;6.35;;;;;;;20.90;57.27;102033.56;5109960;27;20028;-76
2023/06/02 15:03:03;;;;;;;22.15;6.05;;;;;;;20.47;59.13;102031.03;5087615;27;20039;-76
2023/06/02 15:05:29;;;;;;;21.30;6.38;;;;;;;20.26;59.86;102028.28;5102221;27;20414;-78
2023/06/02 15:07:56;;;;;;;13.80;5.45;;;;;;;20.80;60.03;102016.41;5091600;27;20036;-78
2023/06/02 15:10:22;;;;;;;20.52;6.95;;;;;;;20.43;59.70;102025.84;5095480;27;21040;-77
2023/06/02 15:12:48;;;;;;;16.98;6.22;;;;;;;20.18;58.64;102020.78;5088534;27;20737;-77
2023/06/02 15:15:16;;;;;;;18.77;6.65;;;;;;;20.87;56.59;102021.13;5096811;27;20036;-77
2023/06/02 15:17:42;;;;;;;15.20;5.85;;;;;;;20.86;59.01;102023.97;5114317;27;20027;-77
2023/06/02 15:20:13;;;;;;;12.40;5.15;;;;;;;20.90;57.75;102014.59;5086638;27;20165;-77
2023/06/02 15:22:38;;;;;;;18.00;5.28;;;;;;;20.84;57.77;102010.56;5115216;27;20040;-76
2023/06/02 15:25:07;;;;;;;18.48;5.93;;;;;;;20.40;60.35;102015.28;5107998;27;20806;-77
2023/06/02 15:27:35;;;;;;;15.07;5.85;;;;;;;19.90;60.47;102015.03;5090958;28;20311;-77
2023/06/02 15:30:01;;;;;;;20.00;5.60;;;;;;;20.40;59.44;102017.97;5115442;27;20062;-77
2023/06/02 15:32:28;;;;;;;13.80;5.82;;;;;;;20.47;60.46;102017.47;5110191;27;20610;-77
2023/06/02 15:34:53;;;;;;;18.73;5.57;;;;;;;20.69;59.23;102006.50;5095942;27;20118;-77
2023/06/02 15:37:19;;;;;;;22.85;6.35;;;;;;;20.25;60.81;102003.03;5110698;27;20755;-78
2023/06/02 15:39:44;;;;;;;20.17;7.07;;;;;;;21.01;58.88;101989.22;5111176;27;20024;-77
2023/06/02 15:42:10;;;;;;;17.48;6.18;;;;;;;21.09;59.41;101987.53;5084606;27;20519;-78
2023/06/02 15:44:36;;;;;;;24.35;7.10;;;;;;;20.64;59.24;101981.66;5115783;27;20101;-78
2023/06/02 15:47:02;;;;;;;22.38;5.45;;;;;;;21.26;59.18;101982.44;5081981;27;20077;-77
2023/06/02 15:49:28;;;;;;;18.42;6.05;;;;;;;21.30;62.42;101981.19;5106819;27;20485;-78
2023/06/02 15:51:55;;;;;;;15.27;4.97;;;;;;;21.29;56.77;101979.47;5120846;27;20031;-76
2023/06/02 15:54:21;;;;;;;15.98;5.47;;;;;;;20.88;58.54;101984.00;5125494;27;20032;-76
2023/06/02 15:56:54;;;;;;;15.93;5.70;;;;;;;20.71;59.47;101985.53;5104026;27;20028;-77
2023/06/02 15:59:21;;;;;;;17.35;5.38;;;;;;;20.87;58.36;101980.44;5112375;27;20054;-77
2023/06/02 16:01:46;;;;;;;21.67;5.85;;;;;;;21.20;61.49;101983.88;5113607;27;20486;-77
2023/06/02 16:04:12;;;;;;;20.92;6.25;;;;;;;21.11;59.75;101984.69;5087575;27;20040;-77
2023/06/02 16:06:38;;;;;;;19.38;6.70;;;;;;;21.04;59.85;101984.38;5120636;27;20035;-75
2023/06/02 16:09:08;;;;;;;16.25;7.25;;;;;;;20.80;60.91;101981.16;5118183;27;21037;-75
2023/06/02 16:11:39;;;;;;;19.63;7.00;;;;;;;20.82;62.36;101982.72;5111138;27;20039;-76
2023/06/02 16:14:08;;;;;;;22.33;6.40;;;;;;;20.76;62.47;101979.69;5114931;27;20044;-78
2023/06/02 16:16:34;;;;;;;19.55;5.68;;;;;;;21.25;59.78;101967.16;5120774;27;20147;-78
2023/06/02 16:19:01;;;;;;;19.45;5.60;;;;;;;21.76;60.20;101972.41;5119972;27;20036;-78
2023/06/02 16:21:28;;;;;;;17.13;5.82;;;;;;;22.08;57.92;101966.66;5089479;27;20070;-78
2023/06/02 16:23:56;;;;;;;19.98;6.10;;;;;;;22.19;60.31;101966.56;5109012;27;20036;-77
2023/06/02 16:26:21;;;;;;;22.23;7.05;;;;;;;21.84;57.87;101961.69;5097043;27;20040;-78
2023/06/02 16:28:48;;;;;;;17.98;6.20;;;;;;;21.76;58.42;101957.97;5102403;27;20093;-78
2023/06/02 16:31:17;;;;;;;16.27;5.57;;;;;;;21.62;56.40;101959.25;5098579;28;20040;-78
2023/06/02 16:33:43;;;;;;;19.80;6.65;;;;;;;21.12;59.93;101961.97;5089977;27;20130;-78
2023/06/02 16:36:10;;;;;;;17.10;5.70;;;;;;;21.19;59.94;101955.88;5116541;27;20065;-78
2023/06/02 16:38:44;;;;;;;17.42;6.20;;;;;;;20.92;59.75;101959.19;5097507;27;20028;-77
2023/06/02 16:41:09;;;;;;;15.65;6.35;;;;;;;20.82;60.24;101960.16;5104692;27;20101;-77
2023/06/02 16:43:35;;;;;;;22.85;6.80;;;;;;;20.69;61.41;101963.13;5107925;27;20043;-77
2023/06/02 16:46:02;;;;;;;22.85;6.15;;;;;;;20.04;60.07;101962.41;5087812;27;20027;-76
2023/06/02 16:48:28;;;;;;;16.30;5.53;;;;;;;20.27;62.15;101959.56;5116145;27;20028;-77
2023/06/02 16:50:54;;;;;;;18.98;5.57;;;;;;;20.52;60.59;101969.16;5114794;27;20147;-77
2023/06/02 16:53:20;;;;;;;16.52;6.13;;;;;;;19.88;64.14;101972.81;5115643;27;20027;-77
2023/06/02 16:55:46;;;;;;;18.40;5.97;;;;;;;20.13;62.53;101960.75;5095467;27;20135;-77
2023/06/02 16:58:12;;;;;;;16.10;6.10;;;;;;;19.80;64.14;101967.19;5077318;27;20507;-77
2023/06/02 17:00:38;;;;;;;13.07;5.90;;;;;;;20.28;63.35;101964.88;5109712;27;20895;-76
2023/06/02 17:03:04;;;;;;;17.88;5.65;;;;;;;20.42;61.50;101966.34;5107596;27;20042;-77
2023/06/02 17:05:29;;;;;;;18.80;6.13;;;;;;;20.58;60.75;101969.50;5086503;27;20070;-77
2023/06/02 17:07:56;;;;;;;17.02;6.43;;;;;;;20.48;61.78;101967.69;5116999;27;20767;-78
2023/06/02 17:10:21;;;;;;;19.38;5.70;;;;;;;20.17;64.92;101965.75;5113590;27;20060;-77
2023/06/02 17:12:47;;;;;;;21.67;6.05;;;;;;;20.16;64.01;101968.63;5106465;27;20036;-77
2023/06/02 17:15:14;;;;;;;14.90;6.25;;;;;;;19.77;65.43;101973.72;5111453;27;20040;-77
2023/06/02 17:17:40;;;;;;;15.73;5.20;;;;;;;19.80;64.76;101976.19;5074595;27;20026;-78
2023/06/02 17:20:10;;;;;;;19.90;5.32;;;;;;;19.79;65.98;101974.47;5092987;27;20066;-78
2023/06/02 17:22:47;;;;;;;18.13;5.55;;;;;;;19.90;66.78;101970.84;5096178;27;20158;-76
2023/06/02 17:25:13;;;;;;;20.10;5.03;;;;;;;19.88;65.42;101970.09;5089020;27;20108;-78
2023/06/02 17:27:40;;;;;;;19.90;5.78;;;;;;;19.80;66.32;101976.19;5084255;28;20035;-78
2023/06/02 17:30:11;;;;;;;21.85;5.78;;;;;;;19.79;66.64;101973.63;5106275;27;20028;-76
2023/06/02 17:32:37;;;;;;;20.63;6.43;;;;;;;19.85;66.34;101973.94;5103290;27;20032;-78
2023/06/02 17:35:04;;;;;;;14.40;5.97;;;;;;;19.85;67.29;101970.38;5108754;27;20046;-78
2023/06/02 17:37:32;;;;;;;19.83;6.35;;;;;;;19.99;67.49;101970.06;5085051;27;20082;-78
2023/06/02 17:40:00;;;;;;;27.58;5.63;;;;;;;20.08;66.43;101973.81;5084755;27;20032;-77
2023/06/02 17:42:27;;;;;;;22.23;6.70;;;;;;;20.11;66.58;101971.72;5091114;27;20059;-78
2023/06/02 17:44:52;;;;;;;15.77;6.32;;;;;;;20.01;69.12;101961.81;5110417;27;20083;-77
2023/06/02 17:47:18;;;;;;;27.13;6.90;;;;;;;19.91;68.47;101968.00;5112189;27;20578;-78
2023/06/02 17:49:45;;;;;;;19.63;6.93;;;;;;;19.99;67.85;101974.63;5095556;27;20066;-79
2023/06/02 17:52:11;;;;;;;23.27;6.30;;;;;;;19.85;67.74;101970.38;5105852;27;20039;-78
2023/06/02 17:54:40;;;;;;;17.23;5.32;;;;;;;19.86;67.59;101974.81;5109818;27;21089;-78
2023/06/02 17:57:08;;;;;;;29.83;7.05;;;;;;;19.77;68.80;101980.97;5090635;27;20487;-78
2023/06/02 17:59:36;;;;;;;17.50;5.55;;;;;;;19.98;67.74;101972.88;5099197;27;20039;-77
2023/06/02 18:02:02;;;;;;;14.95;5.10;;;;;;;19.98;66.11;101964.75;5108956;27;20038;-78
2023/06/02 18:04:28;;;;;;;21.20;6.10;;;;;;;19.66;68.15;101976.47;5093694;27;20609;-78
2023/06/02 18:06:54;;;;;;;21.42;6.20;;;;;;;19.62;66.58;101977.72;5111800;27;20046;-78
2023/06/02 18:09:19;;;;;;;20.42;6.05;;;;;;;19.86;66.09;101974.81;5113063;27;20586;-78
2023/06/02 18:11:46;;;;;;;20.52;6.10;;;;;;;19.86;67.06;101972.94;5112851;27;20032;-77
2023/06/02 18:14:12;;;;;;;19.50;6.30;;;;;;;19.81;66.28;101972.47;5111308;27;20047;-78
2023/06/02 18:16:37;;;;;;;23.92;6.10;;;;;;;19.69;66.28;101973.53;5110222;27;20781;-78
2023/06/02 18:19:03;;;;;;;25.63;6.03;;;;;;;19.75;65.61;101967.59;5109958;27;20497;-79
2023/06/02 18:21:30;;;;;;;18.48;5.95;;;;;;;19.97;65.47;101963.06;5095318;27;20609;-78
2023/06/02 18:23:57;;;;;;;20.05;5.85;;;;;;;19.80;67.35;101968.06;5114490;27;20031;-78
2023/06/02 18:26:25;;;;;;;22.67;6.28;;;;;;;19.77;66.40;101972.88;5110630;27;20042;-78
2023/06/02 18:28:53;;;;;;;23.15;6.40;;;;;;;19.42;66.14;101980.19;5109934;27;20027;-78
2023/06/02 18:31:21;;;;;;;21.30;6.10;;;;;;;19.36;67.38;101974.44;5111690;27;20028;-77
2023/06/02 18:33:47;;;;;;;15.35;5.13;;;;;;;19.46;67.49;101974.53;5105112;27;20047;-78
2023/06/02 18:36:13;;;;;;;26.15;5.75;;;;;;;19.40;68.93;101975.91;5107206;27;20083;-78
2023/06/02 18:38:39;;;;;;;18.83;5.68;;;;;;;19.33;68.49;101974.72;5096083;27;20052;-78
2023/06/02 18:41:06;;;;;;;20.00;6.63;;;;;;;19.43;69.15;101975.66;5106607;27;20112;-78
2023/06/02 18:43:33;;;;;;;16.10;5.07;;;;;;;19.40;68.41;101970.50;5088503;27;20043;-78
2023/06/02 18:45:58;;;;;;;16.10;5.18;;;;;;;19.35;68.03;101973.59;5108196;27;20508;-77
2023/06/02 18:48:24;;;;;;;17.67;5.25;;;;;;;19.25;68.44;101971.78;5103255;27;20078;-78
2023/06/02 18:50:50;;;;;;;20.42;5.55;;;;;;;19.19;68.41;101970.44;5104060;27;20063;-78
2023/06/02 18:53:16;;;;;;;18.38;5.35;;;;;;;19.07;69.11;101966.00;5111652;27;20157;-78
2023/06/02 18:55:45;;;;;;;18.20;5.35;;;;;;;19.13;69.88;101960.97;5102815;27;20123;-78
2023/06/02 18:58:11;;;;;;;20.33;5.60;;;;;;;19.07;70.88;101963.28;5095633;27;20032;-78
2023/06/02 19:00:43;;;;;;;21.58;6.40;;;;;;;18.91;73.63;101960.97;5106437;27;20115;-78
2023/06/02 19:03:11;;;;;;;;;;;;;;;18.86;75.39;101960.50;5116425;27;20074;-78
2023/06/02 19:05:37;;;;;;;22.55;6.57;;;;;;;18.64;76.31;101969.44;5095230;28;19923;-77
2023/06/02 19:08:03;;;;;;;21.02;6.55;;;;;;;18.56;77.66;101969.19;5112473;27;20724;-76
2023/06/02 19:10:31;;;;;;;14.88;5.78;;;;;;;18.46;79.63;101974.44;5102821;27;20971;-77
2023/06/02 19:12:56;;;;;;;18.30;5.88;;;;;;;18.35;80.69;101967.19;5106504;27;20180;-77
2023/06/02 19:15:22;;;;;;;23.98;7.53;;;;;;;18.34;81.07;101959.22;5108636;27;20045;-77
2023/06/02 19:17:50;;;;;;;16.63;5.85;;;;;;;18.19;82.06;101960.41;5092011;28;20088;-78
2023/06/02 19:20:16;;;;;;;28.48;7.15;;;;;;;18.09;83.05;101955.72;5094502;27;20044;-77
2023/06/02 19:22:41;;;;;;;19.67;6.80;;;;;;;17.99;84.96;101957.41;5092425;27;20027;-76
2023/06/02 19:25:11;;;;;;;16.73;5.80;;;;;;;17.92;86.03;101957.97;5096608;27;20912;-77
2023/06/02 19:27:39;;;;;;;24.55;6.90;;;;;;;17.81;87.61;101956.09;5094725;27;20035;-77
2023/06/02 19:30:13;;;;;;;17.20;6.80;;;;;;;17.78;87.76;101957.22;5078570;27;20028;-77
2023/06/02 19:32:47;;;;;;;19.30;7.13;;;;;;;17.63;89.27;101963.75;5096127;27;20039;-77
2023/06/02 19:35:13;;;;;;;16.95;6.57;;;;;;;17.49;90.83;101966.59;5091718;27;20090;-78
2023/06/02 19:37:40;;;;;;;17.10;6.63;;;;;;;17.34;92.75;101974.00;5077955;28;20048;-76
2023/06/02 19:40:11;;;;;;;21.13;7.25;;;;;;;17.29;93.16;101973.47;5095864;28;20089;-77
2023/06/02 19:42:47;;;;;;;25.75;9.73;;;;;;;17.22;93.94;101970.38;5091920;27;20101;-76
2023/06/02 19:45:13;;;;;;;20.95;11.55;;;;;;;17.23;93.59;101977.47;5086780;28;21063;-76
2023/06/02 19:47:39;;;;;;;25.10;10.77;;;;;;;17.17;94.10;101977.94;5089242;28;20040;-77
2023/06/02 19:50:10;;;;;;;26.80;10.57;;;;;;;17.13;94.35;101981.81;5082188;28;20029;-76
2023/06/02 19:52:37;;;;;;;30.40;11.27;;;;;;;16.98;95.16;101982.94;5108544;27;20060;-77
2023/06/02 19:55:05;;;;;;;26.35;11.40;;;;;;;16.86;96.92;101986.50;5085232;28;20147;-77
2023/06/02 19:57:37;;;;;;;25.58;10.02;;;;;;;16.76;98.29;101986.28;5090562;28;20044;-77
2023/06/02 20:00:07;;;;;;;29.40;10.55;;;;;;;16.76;97.67;101987.16;5092874;28;20036;-77
2023/06/02 20:02:38;;;;;;;25.20;9.95;;;;;;;16.68;98.42;101985.97;5083089;28;20028;-77
2023/06/02 20:05:12;;;;;;;25.58;9.57;;;;;;;16.60;97.81;101980.25;5068641;28;20028;-77
2023/06/02 20:07:41;;;;;;;25.40;10.52;;;;;;;16.40;100.00;101984.34;5091132;28;20061;-77
2023/06/02 20:10:10;;;;;;;22.15;9.23;;;;;;;16.31;100.00;101986.72;5092229;28;20028;-77
2023/06/02 20:12:37;;;;;;;28.35;9.63;;;;;;;16.30;100.00;101986.78;5105371;27;20028;-77
2023/06/02 20:15:05;;;;;;;23.50;9.55;;;;;;;16.20;100.00;101988.41;5100673;27;20047;-78
2023/06/02 20:17:32;;;;;;;27.85;9.90;;;;;;;16.14;100.00;101986.13;5069413;28;20047;-76
2023/06/02 20:19:58;;;;;;;23.73;9.35;;;;;;;16.01;100.00;101992.38;5093680;28;20042;-77
2023/06/02 20:22:25;;;;;;;32.63;9.23;;;;;;;16.01;100.00;101992.38;5094503;28;20109;-76
2023/06/02 20:24:51;;;;;;;19.98;9.20;;;;;;;15.97;100.00;101996.22;5093269;27;20233;-77
2023/06/02 20:27:17;;;;;;;26.60;9.30;;;;;;;16.00;100.00;102000.53;5088576;28;20126;-77
2023/06/02 20:29:42;;;;;;;39.55;11.50;;;;;;;15.97;100.00;102001.59;5093433;28;20036;-76
2023/06/02 20:32:09;;;;;;;21.52;9.40;;;;;;;15.84;100.00;102011.44;5091020;28;20118;-77
2023/06/02 20:34:35;;;;;;;20.42;9.35;;;;;;;15.80;100.00;102007.25;5086884;28;20083;-76
2023/06/02 20:37:01;;;;;;;28.17;11.10;;;;;;;15.76;100.00;102011.97;5082693;28;20147;-77
2023/06/02 20:39:28;;;;;;;26.70;11.57;;;;;;;15.65;100.00;102013.63;5088200;27;20024;-76
2023/06/02 20:41:53;;;;;;;40.70;12.57;;;;;;;15.59;100.00;102014.88;5108532;27;20047;-77
2023/06/02 20:44:20;;;;;;;30.25;9.48;;;;;;;15.49;100.00;102017.31;5086502;28;20053;-76
2023/06/02 20:46:47;;;;;;;24.88;11.15;;;;;;;15.49;100.00;102016.44;5094784;28;20032;-77
2023/06/02 20:49:13;;;;;;;25.58;11.95;;;;;;;15.45;100.00;102013.06;5067743;28;21019;-77
2023/06/02 20:51:42;;;;;;;31.38;13.10;;;;;;;15.34;100.00;102020.97;5092894;28;20043;-77
2023/06/02 20:54:09;;;;;;;30.95;11.73;;;;;;;15.32;100.00;102014.84;5091714;28;20040;-76
2023/06/02 20:56:36;;;;;;;38.70;15.00;;;;;;;15.27;100.00;102011.59;5093842;28;20073;-77
2023/06/02 20:59:01;;;;;;;39.28;14.75;;;;;;;15.26;100.00;102020.59;5088818;28;20039;-76
2023/06/02 21:01:27;;;;;;;38.63;14.48;;;;;;;15.26;100.00;102012.53;5094299;28;20032;-76
2023/06/02 21:03:53;;;;;;;37.90;13.23;;;;;;;15.16;100.00;102011.41;5093173;28;20136;-76
2023/06/02 21:06:18;;;;;;;30.73;11.10;;;;;;;15.22;100.00;102019.09;5095489;28;20056;-76
2023/06/02 21:08:45;;;;;;;30.80;9.13;;;;;;;15.22;100.00;102027.16;5089965;28;20071;-76
2023/06/02 21:11:11;;;;;;;25.85;10.18;;;;;;;15.13;100.00;102025.06;5088198;28;20028;-76
2023/06/02 21:13:37;;;;;;;24.02;8.75;;;;;;;15.16;100.00;102027.53;5094568;28;20084;-77
2023/06/02 21:16:09;;;;;;;19.45;9.20;;;;;;;15.19;100.00;102032.72;5085728;28;20043;-75
2023/06/02 21:18:35;;;;;;;19.35;8.23;;;;;;;15.10;100.00;102027.91;5092528;28;20568;-77
2023/06/02 21:21:01;;;;;;;20.98;8.38;;;;;;;15.09;100.00;102027.06;5086851;28;20032;-76
2023/06/02 21:23:27;;;;;;;20.88;8.55;;;;;;;14.91;100.00;102029.09;5093107;28;20032;-76
2023/06/02 21:25:53;;;;;;;22.20;8.98;;;;;;;14.64;100.00;102025.44;5088601;27;20047;-76
2023/06/02 21:28:19;;;;;;;22.23;9.40;;;;;;;14.70;100.00;102025.91;5095187;28;20039;-75
2023/06/02 21:30:45;;;;;;;23.80;8.70;;;;;;;14.67;100.00;102023.44;5091305;28;20036;-76
2023/06/02 21:33:11;;;;;;;23.38;8.90;;;;;;;14.66;100.00;102018.13;5086451;28;20041;-76
2023/06/02 21:35:37;;;;;;;23.35;8.25;;;;;;;14.81;100.00;102022.59;5090892;28;20039;-76
2023/06/02 21:38:03;;;;;;;26.75;8.52;;;;;;;14.78;100.00;102025.44;5085729;28;20880;-76
2023/06/02 21:40:28;;;;;;;15.23;7.50;;;;;;;14.86;100.00;102031.22;5093056;28;20077;-76
2023/06/02 21:42:54;;;;;;;20.67;7.78;;;;;;;14.87;100.00;102024.88;5096041;28;20020;-76
2023/06/02 21:45:19;;;;;;;24.42;8.02;;;;;;;14.73;100.00;102024.88;5080269;28;20048;-76
2023/06/02 21:47:46;;;;;;;27.92;7.78;;;;;;;14.75;100.00;102028.31;5082250;28;20047;-76
2023/06/02 21:50:12;;;;;;;23.65;7.47;;;;;;;14.63;100.00;102032.63;5093871;27;20066;-76
2023/06/02 21:52:39;;;;;;;16.95;7.70;;;;;;;14.73;100.00;102030.25;5093661;28;20060;-77
2023/06/02 21:55:08;;;;;;;18.75;7.63;;;;;;;14.62;100.00;102035.41;5079861;28;20040;-76
2023/06/02 21:57:35;;;;;;;22.48;7.50;;;;;;;14.66;100.00;102029.75;5094233;27;20055;-76
2023/06/02 22:00:04;;;;;;;12.90;7.05;;;;;;;14.70;100.00;102036.66;5087015;28;20033;-76
2023/06/02 22:02:32;;;;;;;19.23;7.15;;;;;;;14.70;100.00;102035.78;5086439;28;20104;-76
2023/06/02 22:04:59;;;;;;;15.45;6.78;;;;;;;14.71;100.00;102040.22;5074993;28;20048;-76
2023/06/02 22:07:25;;;;;;;13.63;6.65;;;;;;;14.60;100.00;102042.69;5067061;28;20289;-76
2023/06/02 22:09:53;;;;;;;15.13;6.38;;;;;;;14.53;100.00;102034.16;5053726;28;20033;-76
2023/06/02 22:12:19;;;;;;;19.67;6.03;;;;;;;14.49;100.00;102027.22;5071740;28;20044;-77
2023/06/02 22:14:45;;;;;;;14.50;6.00;;;;;;;14.48;100.00;102042.47;5080591;28;20067;-77
2023/06/02 22:17:10;;;;;;;13.48;6.57;;;;;;;14.52;100.00;102043.16;5071872;28;20043;-76
2023/06/02 22:19:36;;;;;;;17.23;6.57;;;;;;;14.45;100.00;102042.63;5060271;28;20395;-75
2023/06/02 22:22:02;;;;;;;13.55;6.15;;;;;;;14.33;100.00;102037.13;5087770;28;20526;-76
2023/06/02 22:24:28;;;;;;;13.27;5.95;;;;;;;14.42;100.00;102042.81;5072028;28;20075;-76
2023/06/02 22:26:55;;;;;;;22.60;6.53;;;;;;;14.41;100.00;102046.47;5070910;28;20569;-77
2023/06/02 22:29:21;;;;;;;16.23;7.30;;;;;;;14.51;100.00;102049.50;5073973;28;20064;-76
2023/06/02 22:31:47;;;;;;;22.80;6.30;;;;;;;14.48;100.00;102050.53;5085553;28;20040;-76
2023/06/02 22:34:12;;;;;;;18.48;6.82;;;;;;;14.54;100.00;102046.59;5082679;28;20023;-76
2023/06/02 22:36:39;;;;;;;13.88;7.15;;;;;;;14.52;100.00;102058.41;5075900;28;20630;-76
2023/06/02 22:39:06;;;;;;;14.80;6.43;;;;;;;14.54;100.00;102059.16;5083257;28;20044;-76
2023/06/02 22:41:36;;;;;;;13.93;6.88;;;;;;;14.48;100.00;102058.56;5078275;28;20066;-77
2023/06/02 22:44:01;;;;;;;19.38;6.70;;;;;;;14.45;100.00;102057.84;5078268;28;20044;-76
2023/06/02 22:46:27;;;;;;;18.67;7.00;;;;;;;14.36;100.00;102056.59;5065056;28;20754;-76
2023/06/02 22:48:53;;;;;;;13.35;6.05;;;;;;;14.35;100.00;102057.53;5076748;28;20035;-76
2023/06/02 22:51:18;;;;;;;22.00;7.72;;;;;;;14.29;100.00;102055.22;5075214;28;20118;-77
2023/06/02 22:53:44;;;;;;;16.85;7.35;;;;;;;14.29;100.00;102057.91;5081349;28;20086;-76
2023/06/02 22:56:10;;;;;;;14.68;6.45;;;;;;;14.21;100.00;102060.22;5084418;28;20048;-77
2023/06/02 22:58:36;;;;;;;12.00;6.45;;;;;;;14.22;100.00;102064.63;5091833;28;20108;-76
2023/06/02 23:01:03;;;;;;;20.05;8.13;;;;;;;14.10;100.00;102076.03;5085294;28;20029;-77
2023/06/02 23:03:28;;;;;;;13.52;7.30;;;;;;;14.01;100.00;102066.75;5081544;28;20383;-75
2023/06/02 23:05:54;;;;;;;15.23;7.50;;;;;;;13.98;100.00;102069.59;5076169;28;20335;-76
2023/06/02 23:08:21;;;;;;;17.52;7.30;;;;;;;13.91;100.00;102068.22;5091953;28;20072;-76
2023/06/02 23:10:47;;;;;;;18.80;6.38;;;;;;;13.88;100.00;102069.25;5065572;28;20029;-76
2023/06/02 23:13:13;;;;;;;14.05;7.68;;;;;;;13.89;100.00;102070.97;5065799;28;20048;-76
2023/06/02 23:15:39;;;;;;;16.65;7.03;;;;;;;13.91;100.00;102076.28;5065423;28;20044;-75
2023/06/02 23:18:10;;;;;;;12.20;7.50;;;;;;;13.89;100.00;102072.78;5058996;28;20037;-75
2023/06/02 23:20:40;;;;;;;15.10;6.95;;;;;;;13.86;100.00;102078.34;5058404;28;20145;-77
2023/06/02 23:23:09;;;;;;;14.05;6.07;;;;;;;13.84;100.00;102081.09;5070913;28;20082;-75
2023/06/02 23:25:36;;;;;;;17.35;8.77;;;;;;;13.80;100.00;102081.34;5073810;28;20032;-75
2023/06/02 23:28:03;;;;;;;24.13;8.18;;;;;;;13.82;100.00;102074.97;5055510;28;20036;-76
2023/06/02 23:30:28;;;;;;;15.65;7.47;;;;;;;13.73;100.00;102073.66;5066016;28;20465;-76
2023/06/02 23:32:54;;;;;;;18.02;6.90;;;;;;;13.62;100.00;102072.56;5069561;28;20805;-76
2023/06/02 23:35:20;;;;;;;19.90;7.57;;;;;;;13.61;100.00;102073.53;5075508;28;20048;-77
2023/06/02 23:37:46;;;;;;;19.13;7.75;;;;;;;13.58;100.00;102074.53;5061200;28;20774;-75
2023/06/02 23:40:12;;;;;;;18.65;8.88;;;;;;;13.41;100.00;102071.94;5074636;28;20468;-76
2023/06/02 23:42:39;;;;;;;15.93;6.93;;;;;;;13.42;100.00;102079.91;5073582;28;20491;-77
2023/06/02 23:45:10;;;;;;;23.70;8.95;;;;;;;13.39;100.00;102072.00;5071638;28;20032;-75
2023/06/02 23:47:36;;;;;;;15.57;7.75;;;;;;;13.36;100.00;102077.56;5065487;28;20037;-76
2023/06/02 23:50:03;;;;;;;15.40;8.02;;;;;;;13.36;100.00;102082.94;5058601;28;20041;-75
2023/06/02 23:52:30;;;;;;;16.00;8.18;;;;;;;13.27;100.00;102083.44;5073481;28;20041;-77
2023/06/02 23:54:55;;;;;;;17.00;8.00;;;;;;;13.40;100.00;102084.50;5073032;28;20041;-76
2023/06/02 23:57:21;;;;;;;16.65;8.30;;;;;;;13.30;100.00;102085.91;5067103;28;20545;-76
2023/06/02 23:59:48;;;;;;;16.17;8.35;;;;;;;13.29;100.00;102088.69;5071958;28;20925;-75
